sensor_id;sensor_type;location;lat;lon;timestamp;pressure;altitude;pressure_sealevel;temperature;humidity
38780;BME280;29273;49.962;9.768;2023-08-21T00:01:28;100289.91;;;26.10;55.39
38780;BME280;29273;49.962;9.768;2023-08-21T00:03:53;100295.63;;;26.08;55.92
38780;BME280;29273;49.962;9.768;2023-08-21T00:06:19;100282.66;;;26.05;55.53
38780;BME280;29273;49.962;9.768;2023-08-21T00:08:44;100291.09;;;26.03;55.62
38780;BME280;29273;49.962;9.768;2023-08-21T00:11:10;100282.44;;;26.01;55.61
38780;BME280;29273;49.962;9.768;2023-08-21T00:13:35;100292.47;;;26.01;55.99
38780;BME280;29273;49.962;9.768;2023-08-21T00:16:00;100291.97;;;25.99;55.66
38780;BME280;29273;49.962;9.768;2023-08-21T00:18:26;100286.03;;;25.97;55.73
38780;BME280;29273;49.962;9.768;2023-08-21T00:20:51;100281.16;;;25.94;55.91
38780;BME280;29273;49.962;9.768;2023-08-21T00:23:17;100284.16;;;25.92;56.23
38780;BME280;29273;49.962;9.768;2023-08-21T00:25:46;100289.03;;;25.95;54.93
38780;BME280;29273;49.962;9.768;2023-08-21T00:28:13;100283.94;;;25.89;55.93
38780;BME280;29273;49.962;9.768;2023-08-21T00:30:39;100281.81;;;25.85;56.43
38780;BME280;29273;49.962;9.768;2023-08-21T00:33:04;100285.59;;;25.84;56.14
38780;BME280;29273;49.962;9.768;2023-08-21T00:35:30;100284.28;;;25.82;56.46
38780;BME280;29273;49.962;9.768;2023-08-21T00:37:55;100287.59;;;25.79;56.21
38780;BME280;29273;49.962;9.768;2023-08-21T00:40:21;100291.38;;;25.78;56.57
38780;BME280;29273;49.962;9.768;2023-08-21T00:42:46;100280.31;;;25.74;56.62
38780;BME280;29273;49.962;9.768;2023-08-21T00:45:12;100285.22;;;25.72;56.47
38780;BME280;29273;49.962;9.768;2023-08-21T00:47:38;100287.44;;;25.70;56.14
38780;BME280;29273;49.962;9.768;2023-08-21T00:50:05;100283.59;;;25.71;55.58
38780;BME280;29273;49.962;9.768;2023-08-21T00:52:32;100283.97;;;25.64;56.56
38780;BME280;29273;49.962;9.768;2023-08-21T00:54:58;100278.81;;;25.63;56.82
38780;BME280;29273;49.962;9.768;2023-08-21T00:57:23;100278.31;;;25.61;56.65
38780;BME280;29273;49.962;9.768;2023-08-21T00:59:49;100286.47;;;25.61;56.68
38780;BME280;29273;49.962;9.768;2023-08-21T01:02:14;100277.81;;;25.59;56.73
38780;BME280;29273;49.962;9.768;2023-08-21T01:04:41;100270.75;;;25.58;56.69
38780;BME280;29273;49.962;9.768;2023-08-21T01:07:06;100269.16;;;25.57;57.23
38780;BME280;29273;49.962;9.768;2023-08-21T01:09:41;100281.03;;;25.61;55.68
38780;BME280;29273;49.962;9.768;2023-08-21T01:12:42;100269.75;;;25.54;54.97
38780;BME280;29273;49.962;9.768;2023-08-21T01:15:13;100280.06;;;25.52;57.13
38780;BME280;29273;49.962;9.768;2023-08-21T01:17:40;100284.69;;;25.51;56.67
38780;BME280;29273;49.962;9.768;2023-08-21T01:20:07;100281.97;;;25.51;56.33
38780;BME280;29273;49.962;9.768;2023-08-21T01:22:37;100276.81;;;25.49;57.03
38780;BME280;29273;49.962;9.768;2023-08-21T01:25:05;100278.53;;;25.45;57.12
38780;BME280;29273;49.962;9.768;2023-08-21T01:27:31;100280.44;;;25.45;57.34
38780;BME280;29273;49.962;9.768;2023-08-21T01:29:57;100279.88;;;25.43;57.11
38780;BME280;29273;49.962;9.768;2023-08-21T01:32:27;100281.22;;;25.45;55.98
38780;BME280;29273;49.962;9.768;2023-08-21T01:34:55;100277.25;;;25.38;57.27
38780;BME280;29273;49.962;9.768;2023-08-21T01:37:23;100282.94;;;25.36;57.15
38780;BME280;29273;49.962;9.768;2023-08-21T01:39:48;100283.56;;;25.33;57.65
38780;BME280;29273;49.962;9.768;2023-08-21T01:42:14;100286.84;;;25.30;57.72
38780;BME280;29273;49.962;9.768;2023-08-21T01:44:39;100281.69;;;25.28;57.43
38780;BME280;29273;49.962;9.768;2023-08-21T01:47:06;100283.59;;;25.28;57.39
38780;BME280;29273;49.962;9.768;2023-08-21T01:49:31;100284.16;;;25.25;57.71
38780;BME280;29273;49.962;9.768;2023-08-21T01:51:57;100279.03;;;25.23;57.43
38780;BME280;29273;49.962;9.768;2023-08-21T01:54:24;100276.59;;;25.22;57.84
38780;BME280;29273;49.962;9.768;2023-08-21T01:56:50;100276.38;;;25.18;57.29
38780;BME280;29273;49.962;9.768;2023-08-21T01:59:16;100284.50;;;25.18;57.05
38780;BME280;29273;49.962;9.768;2023-08-21T02:01:41;100279.66;;;25.15;57.32
38780;BME280;29273;49.962;9.768;2023-08-21T02:04:07;100281.84;;;25.13;57.63
38780;BME280;29273;49.962;9.768;2023-08-21T02:06:32;100283.22;;;25.10;57.37
38780;BME280;29273;49.962;9.768;2023-08-21T02:08:58;100288.13;;;25.08;57.95
38780;BME280;29273;49.962;9.768;2023-08-21T02:11:23;100282.47;;;25.05;57.81
38780;BME280;29273;49.962;9.768;2023-08-21T02:13:51;100283.28;;;25.05;57.56
38780;BME280;29273;49.962;9.768;2023-08-21T02:16:16;100288.47;;;25.02;57.69
38780;BME280;29273;49.962;9.768;2023-08-21T02:18:41;100288.75;;;25.00;57.91
38780;BME280;29273;49.962;9.768;2023-08-21T02:21:07;100283.59;;;24.99;57.86
38780;BME280;29273;49.962;9.768;2023-08-21T02:23:32;100286.09;;;24.95;57.69
38780;BME280;29273;49.962;9.768;2023-08-21T02:25:58;100291.78;;;24.93;57.68
38780;BME280;29273;49.962;9.768;2023-08-21T02:28:24;100303.72;;;24.92;57.96
38780;BME280;29273;49.962;9.768;2023-08-21T02:30:49;100297.78;;;24.90;57.94
38780;BME280;29273;49.962;9.768;2023-08-21T02:33:14;100301.84;;;24.88;58.11
38780;BME280;29273;49.962;9.768;2023-08-21T02:35:40;100292.91;;;24.87;58.01
38780;BME280;29273;49.962;9.768;2023-08-21T02:38:05;100297.03;;;24.85;58.26
38780;BME280;29273;49.962;9.768;2023-08-21T02:40:35;100291.88;;;24.83;58.42
38780;BME280;29273;49.962;9.768;2023-08-21T02:43:00;100294.06;;;24.81;58.15
38780;BME280;29273;49.962;9.768;2023-08-21T02:45:26;100296.25;;;24.79;58.23
38780;BME280;29273;49.962;9.768;2023-08-21T02:47:51;100301.16;;;24.77;58.20
38780;BME280;29273;49.962;9.768;2023-08-21T02:50:17;100294.09;;;24.76;58.26
38780;BME280;29273;49.962;9.768;2023-08-21T02:52:42;100294.66;;;24.73;58.30
38780;BME280;29273;49.962;9.768;2023-08-21T02:55:08;100290.66;;;24.70;58.45
38780;BME280;29273;49.962;9.768;2023-08-21T02:57:34;100291.72;;;24.69;58.64
38780;BME280;29273;49.962;9.768;2023-08-21T02:59:59;100293.91;;;24.67;58.35
38780;BME280;29273;49.962;9.768;2023-08-21T03:02:25;100291.78;;;24.64;58.49
38780;BME280;29273;49.962;9.768;2023-08-21T03:04:51;100293.41;;;24.65;58.30
38780;BME280;29273;49.962;9.768;2023-08-21T03:07:17;100293.97;;;24.62;58.43
38780;BME280;29273;49.962;9.768;2023-08-21T03:09:45;100299.38;;;24.62;58.23
38780;BME280;29273;49.962;9.768;2023-08-21T03:12:12;100295.31;;;24.60;58.58
38780;BME280;29273;49.962;9.768;2023-08-21T03:14:38;100294.00;;;24.57;59.04
38780;BME280;29273;49.962;9.768;2023-08-21T03:17:03;100292.38;;;24.56;58.88
38780;BME280;29273;49.962;9.768;2023-08-21T03:19:29;100292.63;;;24.54;58.91
38780;BME280;29273;49.962;9.768;2023-08-21T03:21:54;100294.03;;;24.52;58.64
38780;BME280;29273;49.962;9.768;2023-08-21T03:24:21;100293.19;;;24.51;58.98
38780;BME280;29273;49.962;9.768;2023-08-21T03:26:47;100300.00;;;24.49;59.26
38780;BME280;29273;49.962;9.768;2023-08-21T03:29:13;100288.66;;;24.47;59.23
38780;BME280;29273;49.962;9.768;2023-08-21T03:31:38;100291.63;;;24.45;59.21
38780;BME280;29273;49.962;9.768;2023-08-21T03:34:05;100295.41;;;24.44;59.46
38780;BME280;29273;49.962;9.768;2023-08-21T03:36:31;100289.50;;;24.42;59.47
38780;BME280;29273;49.962;9.768;2023-08-21T03:38:59;100294.09;;;24.42;58.87
38780;BME280;29273;49.962;9.768;2023-08-21T03:41:26;100290.06;;;24.39;59.14
38780;BME280;29273;49.962;9.768;2023-08-21T03:43:52;100294.66;;;24.38;59.33
38780;BME280;29273;49.962;9.768;2023-08-21T03:46:18;100295.22;;;24.35;59.30
38780;BME280;29273;49.962;9.768;2023-08-21T03:48:43;100286.59;;;24.33;59.17
38780;BME280;29273;49.962;9.768;2023-08-21T03:51:09;100296.59;;;24.33;59.32
38780;BME280;29273;49.962;9.768;2023-08-21T03:53:35;100293.34;;;24.31;59.46
38780;BME280;29273;49.962;9.768;2023-08-21T03:56:00;100286.34;;;24.30;59.57
38780;BME280;29273;49.962;9.768;2023-08-21T03:58:26;100293.63;;;24.29;59.40
38780;BME280;29273;49.962;9.768;2023-08-21T04:00:53;100290.13;;;24.29;59.40
38780;BME280;29273;49.962;9.768;2023-08-21T04:03:19;100293.91;;;24.28;59.22
38780;BME280;29273;49.962;9.768;2023-08-21T04:05:45;100294.19;;;24.26;59.30
38780;BME280;29273;49.962;9.768;2023-08-21T04:08:10;100302.59;;;24.25;58.93
38780;BME280;29273;49.962;9.768;2023-08-21T04:10:36;100309.09;;;24.24;58.79
38780;BME280;29273;49.962;9.768;2023-08-21T04:13:01;100305.31;;;24.19;58.76
38780;BME280;29273;49.962;9.768;2023-08-21T04:15:27;100312.94;;;24.17;59.16
38780;BME280;29273;49.962;9.768;2023-08-21T04:17:52;100313.19;;;24.16;59.32
38780;BME280;29273;49.962;9.768;2023-08-21T04:20:19;100311.03;;;24.18;58.65
38780;BME280;29273;49.962;9.768;2023-08-21T04:22:46;100302.94;;;24.13;59.37
38780;BME280;29273;49.962;9.768;2023-08-21T04:25:11;100309.72;;;24.10;59.29
38780;BME280;29273;49.962;9.768;2023-08-21T04:27:37;100312.72;;;24.09;59.30
38780;BME280;29273;49.962;9.768;2023-08-21T04:30:03;100309.22;;;24.08;59.16
38780;BME280;29273;49.962;9.768;2023-08-21T04:32:30;100310.28;;;24.07;59.36
38780;BME280;29273;49.962;9.768;2023-08-21T04:34:56;100315.97;;;24.06;59.55
38780;BME280;29273;49.962;9.768;2023-08-21T04:37:21;100312.75;;;24.04;59.52
38780;BME280;29273;49.962;9.768;2023-08-21T04:39:51;100320.03;;;24.08;58.50
38780;BME280;29273;49.962;9.768;2023-08-21T04:42:17;100321.94;;;24.02;59.59
38780;BME280;29273;49.962;9.768;2023-08-21T04:44:42;100317.63;;;24.01;59.60
38780;BME280;29273;49.962;9.768;2023-08-21T04:47:24;100318.41;;;24.07;58.46
38780;BME280;29273;49.962;9.768;2023-08-21T04:49:54;100323.84;;;24.02;59.32
38780;BME280;29273;49.962;9.768;2023-08-21T04:52:22;100323.31;;;24.00;60.10
38780;BME280;29273;49.962;9.768;2023-08-21T04:54:48;100328.47;;;24.01;60.27
38780;BME280;29273;49.962;9.768;2023-08-21T04:57:15;100324.91;;;24.01;60.21
38780;BME280;29273;49.962;9.768;2023-08-21T04:59:40;100327.91;;;23.99;60.03
38780;BME280;29273;49.962;9.768;2023-08-21T05:02:06;100327.63;;;24.01;60.30
38780;BME280;29273;49.962;9.768;2023-08-21T05:04:32;100325.44;;;24.03;60.44
38780;BME280;29273;49.962;9.768;2023-08-21T05:06:58;100330.84;;;24.03;60.22
38780;BME280;29273;49.962;9.768;2023-08-21T05:09:23;100330.84;;;24.03;60.27
38780;BME280;29273;49.962;9.768;2023-08-21T05:11:49;100330.84;;;24.03;60.19
38780;BME280;29273;49.962;9.768;2023-08-21T05:14:14;100334.38;;;24.04;60.59
38780;BME280;29273;49.962;9.768;2023-08-21T05:16:40;100330.84;;;24.03;60.72
38780;BME280;29273;49.962;9.768;2023-08-21T05:19:06;100332.75;;;24.02;60.50
38780;BME280;29273;49.962;9.768;2023-08-21T05:21:31;100330.56;;;24.05;60.50
38780;BME280;29273;49.962;9.768;2023-08-21T05:23:57;100334.91;;;24.06;60.83
38780;BME280;29273;49.962;9.768;2023-08-21T05:26:24;100333.84;;;24.07;60.62
38780;BME280;29273;49.962;9.768;2023-08-21T05:28:49;100333.84;;;24.07;60.68
38780;BME280;29273;49.962;9.768;2023-08-21T05:31:15;100330.84;;;24.08;60.80
38780;BME280;29273;49.962;9.768;2023-08-21T05:33:47;100332.44;;;24.09;60.58
38780;BME280;29273;49.962;9.768;2023-08-21T05:36:14;100335.97;;;24.10;60.85
38780;BME280;29273;49.962;9.768;2023-08-21T05:38:40;100334.09;;;24.10;61.23
38780;BME280;29273;49.962;9.768;2023-08-21T05:41:05;100331.91;;;24.12;60.97
38780;BME280;29273;49.962;9.768;2023-08-21T05:43:33;100335.97;;;24.15;60.45
38780;BME280;29273;49.962;9.768;2023-08-21T05:45:59;100334.59;;;24.12;61.27
38780;BME280;29273;49.962;9.768;2023-08-21T05:48:25;100335.97;;;24.15;61.06
38780;BME280;29273;49.962;9.768;2023-08-21T05:50:51;100341.88;;;24.17;61.16
38780;BME280;29273;49.962;9.768;2023-08-21T05:53:17;100339.19;;;24.17;61.55
38780;BME280;29273;49.962;9.768;2023-08-21T05:55:43;100341.88;;;24.17;61.27
38780;BME280;29273;49.962;9.768;2023-08-21T05:58:09;100343.22;;;24.19;61.16
38780;BME280;29273;49.962;9.768;2023-08-21T06:00:35;100345.91;;;24.19;61.57
38780;BME280;29273;49.962;9.768;2023-08-21T06:03:02;100342.94;;;24.21;61.21
38780;BME280;29273;49.962;9.768;2023-08-21T06:05:53;100346.47;;;24.22;61.63
38780;BME280;29273;49.962;9.768;2023-08-21T06:08:19;100351.31;;;24.25;61.60
38780;BME280;29273;49.962;9.768;2023-08-21T06:10:45;100348.31;;;24.26;62.13
38780;BME280;29273;49.962;9.768;2023-08-21T06:13:10;100351.56;;;24.28;62.18
38780;BME280;29273;49.962;9.768;2023-08-21T06:15:36;100356.41;;;24.31;61.48
38780;BME280;29273;49.962;9.768;2023-08-21T06:18:02;100352.84;;;24.36;61.61
38780;BME280;29273;49.962;9.768;2023-08-21T06:20:28;100363.66;;;24.41;61.35
38780;BME280;29273;49.962;9.768;2023-08-21T06:22:53;100361.50;;;24.43;61.99
38780;BME280;29273;49.962;9.768;2023-08-21T06:25:19;100368.22;;;24.46;62.20
38780;BME280;29273;49.962;9.768;2023-08-21T06:27:45;100371.19;;;24.49;61.85
38780;BME280;29273;49.962;9.768;2023-08-21T06:30:10;100371.44;;;24.53;61.66
38780;BME280;29273;49.962;9.768;2023-08-21T06:32:36;100370.09;;;24.55;61.47
38780;BME280;29273;49.962;9.768;2023-08-21T06:35:02;100360.63;;;24.58;61.63
38780;BME280;29273;49.962;9.768;2023-08-21T06:37:27;100369.78;;;24.62;61.77
38780;BME280;29273;49.962;9.768;2023-08-21T06:39:53;100367.59;;;24.64;61.59
38780;BME280;29273;49.962;9.768;2023-08-21T06:42:18;100365.13;;;24.68;61.94
38780;BME280;29273;49.962;9.768;2023-08-21T06:44:48;100359.97;;;24.71;61.50
38780;BME280;29273;49.962;9.768;2023-08-21T06:47:14;100359.38;;;24.74;61.76
38780;BME280;29273;49.962;9.768;2023-08-21T06:49:39;100370.50;;;24.78;61.73
38780;BME280;29273;49.962;9.768;2023-08-21T06:52:05;100366.09;;;24.82;61.62
38780;BME280;29273;49.962;9.768;2023-08-21T06:54:31;100356.63;;;24.85;61.25
38780;BME280;29273;49.962;9.768;2023-08-21T06:56:56;100358.47;;;24.89;61.85
38780;BME280;29273;49.962;9.768;2023-08-21T06:59:22;100360.59;;;24.92;61.48
38780;BME280;29273;49.962;9.768;2023-08-21T07:01:47;100365.47;;;24.96;61.49
38780;BME280;29273;49.962;9.768;2023-08-21T07:04:13;100368.13;;;25.01;61.64
38780;BME280;29273;49.962;9.768;2023-08-21T07:06:39;100362.13;;;25.04;61.47
38780;BME280;29273;49.962;9.768;2023-08-21T07:09:04;100365.06;;;25.07;61.19
38780;BME280;29273;49.962;9.768;2023-08-21T07:11:30;100360.72;;;25.11;61.09
38780;BME280;29273;49.962;9.768;2023-08-21T07:13:56;100359.03;;;25.16;61.47
38780;BME280;29273;49.962;9.768;2023-08-21T07:16:22;100367.13;;;25.21;61.47
38780;BME280;29273;49.962;9.768;2023-08-21T07:18:48;100362.22;;;25.23;61.32
38780;BME280;29273;49.962;9.768;2023-08-21T07:21:13;100361.41;;;25.27;61.42
38780;BME280;29273;49.962;9.768;2023-08-21T07:23:39;100363.25;;;25.32;61.17
38780;BME280;29273;49.962;9.768;2023-08-21T07:26:04;100358.84;;;25.36;61.57
38780;BME280;29273;49.962;9.768;2023-08-21T07:28:32;100360.72;;;25.41;61.48
38780;BME280;29273;49.962;9.768;2023-08-21T07:30:58;100358.78;;;25.46;61.31
38780;BME280;29273;49.962;9.768;2023-08-21T07:33:24;100355.47;;;25.49;61.13
38780;BME280;29273;49.962;9.768;2023-08-21T07:36:01;100364.31;;;25.60;60.65
38780;BME280;29273;49.962;9.768;2023-08-21T07:38:27;100360.25;;;25.58;61.67
38780;BME280;29273;49.962;9.768;2023-08-21T07:41:05;100360.66;;;25.70;60.73
38780;BME280;29273;49.962;9.768;2023-08-21T07:43:33;100354.75;;;25.68;61.19
38780;BME280;29273;49.962;9.768;2023-08-21T07:46:05;100357.31;;;25.78;60.90
38780;BME280;29273;49.962;9.768;2023-08-21T07:48:31;100358.41;;;25.77;60.98
38780;BME280;29273;49.962;9.768;2023-08-21T07:50:56;100366.47;;;25.82;61.18
38780;BME280;29273;49.962;9.768;2023-08-21T07:53:23;100364.81;;;25.87;61.37
38780;BME280;29273;49.962;9.768;2023-08-21T07:55:49;100361.22;;;25.91;61.12
38780;BME280;29273;49.962;9.768;2023-08-21T07:58:14;100359.28;;;25.97;61.07
38780;BME280;29273;49.962;9.768;2023-08-21T08:00:40;100358.41;;;26.01;61.21
38780;BME280;29273;49.962;9.768;2023-08-21T08:03:08;100360.22;;;26.06;61.30
38780;BME280;29273;49.962;9.768;2023-08-21T08:05:34;100358.28;;;26.12;61.33
38780;BME280;29273;49.962;9.768;2023-08-21T08:07:59;100358.22;;;26.17;61.46
38780;BME280;29273;49.962;9.768;2023-08-21T08:10:25;100360.06;;;26.21;61.44
38780;BME280;29273;49.962;9.768;2023-08-21T08:12:50;100352.63;;;26.27;60.98
38780;BME280;29273;49.962;9.768;2023-08-21T08:15:17;100356.06;;;26.33;60.93
38780;BME280;29273;49.962;9.768;2023-08-21T08:17:43;100360.63;;;26.37;60.92
38780;BME280;29273;49.962;9.768;2023-08-21T08:20:11;100358.13;;;26.41;60.83
38780;BME280;29273;49.962;9.768;2023-08-21T08:22:37;100354.53;;;26.46;60.70
38780;BME280;29273;49.962;9.768;2023-08-21T08:25:03;100350.13;;;26.50;60.65
38780;BME280;29273;49.962;9.768;2023-08-21T08:27:31;100344.63;;;26.55;60.54
38780;BME280;29273;49.962;9.768;2023-08-21T08:29:57;100349.97;;;26.60;60.74
38780;BME280;29273;49.962;9.768;2023-08-21T08:32:23;100346.06;;;26.66;59.77
38780;BME280;29273;49.962;9.768;2023-08-21T08:34:49;100350.94;;;26.69;59.92
38780;BME280;29273;49.962;9.768;2023-08-21T08:37:14;100346.22;;;26.75;60.09
38780;BME280;29273;49.962;9.768;2023-08-21T08:39:40;100347.53;;;26.77;59.80
38780;BME280;29273;49.962;9.768;2023-08-21T08:42:06;100351.19;;;26.87;59.91
38780;BME280;29273;49.962;9.768;2023-08-21T08:44:34;100340.75;;;26.94;59.97
38780;BME280;29273;49.962;9.768;2023-08-21T08:47:00;100337.22;;;26.93;60.39
38780;BME280;29273;49.962;9.768;2023-08-21T08:49:26;100350.44;;;27.00;60.63
38780;BME280;29273;49.962;9.768;2023-08-21T08:51:52;100352.25;;;27.05;59.14
38780;BME280;29273;49.962;9.768;2023-08-21T08:54:20;100345.59;;;27.11;59.19
38780;BME280;29273;49.962;9.768;2023-08-21T08:56:46;100340.69;;;27.13;58.92
38780;BME280;29273;49.962;9.768;2023-08-21T08:59:11;100344.13;;;27.19;59.11
38780;BME280;29273;49.962;9.768;2023-08-21T09:01:37;100331.53;;;27.23;58.27
38780;BME280;29273;49.962;9.768;2023-08-21T09:04:03;100332.53;;;27.27;58.36
38780;BME280;29273;49.962;9.768;2023-08-21T09:06:29;100336.00;;;27.32;58.40
38780;BME280;29273;49.962;9.768;2023-08-21T09:08:56;100326.63;;;27.39;58.35
38780;BME280;29273;49.962;9.768;2023-08-21T09:11:22;100327.97;;;27.41;57.28
38780;BME280;29273;49.962;9.768;2023-08-21T09:13:49;100323.22;;;27.47;57.77
38780;BME280;29273;49.962;9.768;2023-08-21T09:16:17;100331.56;;;27.50;56.69
38780;BME280;29273;49.962;9.768;2023-08-21T09:18:49;100328.34;;;27.62;57.74
38780;BME280;29273;49.962;9.768;2023-08-21T09:21:19;100317.94;;;27.64;57.58
38780;BME280;29273;49.962;9.768;2023-08-21T09:23:45;100329.97;;;27.63;56.82
38780;BME280;29273;49.962;9.768;2023-08-21T09:26:21;100321.28;;;27.75;57.92
38780;BME280;29273;49.962;9.768;2023-08-21T09:28:51;100322.28;;;27.79;57.34
38780;BME280;29273;49.962;9.768;2023-08-21T09:31:25;100319.13;;;27.86;57.46
38780;BME280;29273;49.962;9.768;2023-08-21T09:33:58;100319.66;;;27.88;56.81
38780;BME280;29273;49.962;9.768;2023-08-21T09:36:26;100316.41;;;27.86;54.90
38780;BME280;29273;49.962;9.768;2023-08-21T09:38:52;100316.84;;;27.93;55.46
38780;BME280;29273;49.962;9.768;2023-08-21T09:41:21;100314.69;;;28.04;56.51
38780;BME280;29273;49.962;9.768;2023-08-21T09:43:47;100309.56;;;28.02;55.01
38780;BME280;29273;49.962;9.768;2023-08-21T09:46:17;100307.41;;;28.13;56.00
38780;BME280;29273;49.962;9.768;2023-08-21T09:48:46;100310.03;;;28.18;56.00
38780;BME280;29273;49.962;9.768;2023-08-21T09:51:12;100312.25;;;28.16;53.42
38780;BME280;29273;49.962;9.768;2023-08-21T09:53:38;100307.00;;;28.20;53.47
38780;BME280;29273;49.962;9.768;2023-08-21T09:56:23;100300.28;;;28.26;53.49
38780;BME280;29273;49.962;9.768;2023-08-21T09:58:50;100306.94;;;28.34;52.69
38780;BME280;29273;49.962;9.768;2023-08-21T10:01:17;100302.16;;;28.39;51.37
38780;BME280;29273;49.962;9.768;2023-08-21T10:03:46;100302.38;;;28.43;50.98
38780;BME280;29273;49.962;9.768;2023-08-21T10:06:16;100305.63;;;28.54;52.53
38780;BME280;29273;49.962;9.768;2023-08-21T10:08:44;100302.59;;;28.55;52.26
38780;BME280;29273;49.962;9.768;2023-08-21T10:11:11;100304.75;;;28.58;50.81
38780;BME280;29273;49.962;9.768;2023-08-21T10:13:38;100294.00;;;28.62;48.97
38780;BME280;29273;49.962;9.768;2023-08-21T10:16:04;100301.75;;;28.69;49.45
38780;BME280;29273;49.962;9.768;2023-08-21T10:18:35;100292.19;;;28.80;51.25
38780;BME280;29273;49.962;9.768;2023-08-21T10:23:37;100292.38;;;28.84;48.94
38780;BME280;29273;49.962;9.768;2023-08-21T10:26:07;100287.47;;;28.94;51.18
38780;BME280;29273;49.962;9.768;2023-08-21T10:28:53;100281.38;;;28.97;51.81
38780;BME280;29273;49.962;9.768;2023-08-21T10:31:27;100285.75;;;29.07;51.22
38780;BME280;29273;49.962;9.768;2023-08-21T10:33:53;100272.75;;;29.04;48.28
38780;BME280;29273;49.962;9.768;2023-08-21T10:39:03;100274.88;;;29.16;47.99
38780;BME280;29273;49.962;9.768;2023-08-21T10:41:29;100268.19;;;29.22;48.60
38780;BME280;29273;49.962;9.768;2023-08-21T10:43:55;100274.63;;;29.26;47.67
38780;BME280;29273;49.962;9.768;2023-08-21T10:46:21;100266.00;;;29.33;46.33
38780;BME280;29273;49.962;9.768;2023-08-21T10:48:46;100268.56;;;29.38;47.20
38780;BME280;29273;49.962;9.768;2023-08-21T10:51:12;100264.91;;;29.43;46.89
38780;BME280;29273;49.962;9.768;2023-08-21T10:53:38;100264.75;;;29.48;46.11
38780;BME280;29273;49.962;9.768;2023-08-21T10:56:06;100267.31;;;29.53;46.88
38780;BME280;29273;49.962;9.768;2023-08-21T10:58:42;100271.84;;;29.66;49.75
38780;BME280;29273;49.962;9.768;2023-08-21T11:01:07;100259.94;;;29.62;47.43
38780;BME280;29273;49.962;9.768;2023-08-21T11:03:33;100258.97;;;29.67;47.69
38780;BME280;29273;49.962;9.768;2023-08-21T11:08:28;100259.19;;;29.79;47.27
38780;BME280;29273;49.962;9.768;2023-08-21T11:10:54;100258.22;;;29.84;46.90
38780;BME280;29273;49.962;9.768;2023-08-21T11:13:23;100265.78;;;29.96;47.25
38780;BME280;29273;49.962;9.768;2023-08-21T11:15:49;100262.25;;;29.95;45.52
38780;BME280;29273;49.962;9.768;2023-08-21T11:18:14;100267.88;;;29.99;45.68
38780;BME280;29273;49.962;9.768;2023-08-21T11:20:39;100262.25;;;30.04;46.58
38780;BME280;29273;49.962;9.768;2023-08-21T11:23:06;100262.91;;;30.10;46.88
38780;BME280;29273;49.962;9.768;2023-08-21T11:25:39;100259.34;;;30.18;47.46
38780;BME280;29273;49.962;9.768;2023-08-21T11:28:05;100260.66;;;30.12;44.77
38780;BME280;29273;49.962;9.768;2023-08-21T11:30:31;100260.31;;;30.13;46.55
38780;BME280;29273;49.962;9.768;2023-08-21T11:33:05;100257.25;;;30.23;47.73
38780;BME280;29273;49.962;9.768;2023-08-21T11:35:31;100254.38;;;30.20;45.28
38780;BME280;29273;49.962;9.768;2023-08-21T11:37:56;100249.84;;;30.24;45.17
38780;BME280;29273;49.962;9.768;2023-08-21T11:40:22;100254.81;;;30.31;45.21
38780;BME280;29273;49.962;9.768;2023-08-21T11:42:51;100260.16;;;30.44;47.51
38780;BME280;29273;49.962;9.768;2023-08-21T11:45:20;100258.50;;;30.52;47.07
38780;BME280;29273;49.962;9.768;2023-08-21T11:47:45;100257.06;;;30.55;44.89
38780;BME280;29273;49.962;9.768;2023-08-21T11:50:11;100254.63;;;30.62;44.07
38780;BME280;29273;49.962;9.768;2023-08-21T11:52:38;100249.00;;;30.67;44.80
38780;BME280;29273;49.962;9.768;2023-08-21T11:55:07;100249.13;;;30.79;46.54
38780;BME280;29273;49.962;9.768;2023-08-21T11:57:33;100244.44;;;30.80;44.58
38780;BME280;29273;49.962;9.768;2023-08-21T11:59:59;100246.22;;;30.85;44.20
38780;BME280;29273;49.962;9.768;2023-08-21T12:02:26;100247.94;;;30.89;44.25
38780;BME280;29273;49.962;9.768;2023-08-21T12:04:53;100245.38;;;30.93;43.00
38780;BME280;29273;49.962;9.768;2023-08-21T12:07:19;100250.03;;;30.92;43.07
38780;BME280;29273;49.962;9.768;2023-08-21T12:09:48;100254.22;;;30.98;44.60
38780;BME280;29273;49.962;9.768;2023-08-21T12:12:14;100246.81;;;30.90;42.65
38780;BME280;29273;49.962;9.768;2023-08-21T12:14:39;100242.81;;;30.88;43.40
38780;BME280;29273;49.962;9.768;2023-08-21T12:17:05;100239.91;;;30.84;42.81
38780;BME280;29273;49.962;9.768;2023-08-21T12:19:30;100240.25;;;30.83;42.73
38780;BME280;29273;49.962;9.768;2023-08-21T12:21:56;100247.97;;;30.80;42.91
38780;BME280;29273;49.962;9.768;2023-08-21T12:24:23;100241.72;;;30.80;43.20
38780;BME280;29273;49.962;9.768;2023-08-21T12:26:49;100248.81;;;30.81;43.73
38780;BME280;29273;49.962;9.768;2023-08-21T12:29:14;100243.81;;;30.83;43.43
38780;BME280;29273;49.962;9.768;2023-08-21T12:31:40;100245.06;;;30.86;43.59
38780;BME280;29273;49.962;9.768;2023-08-21T12:34:05;100241.34;;;30.90;43.51
38780;BME280;29273;49.962;9.768;2023-08-21T12:36:34;100238.75;;;31.03;43.84
38780;BME280;29273;49.962;9.768;2023-08-21T12:38:59;100243.56;;;31.06;42.50
38780;BME280;29273;49.962;9.768;2023-08-21T12:41:25;100230.19;;;31.13;42.81
38780;BME280;29273;49.962;9.768;2023-08-21T12:43:50;100233.53;;;31.18;41.97
38780;BME280;29273;49.962;9.768;2023-08-21T12:46:16;100230.72;;;31.27;42.09
38780;BME280;29273;49.962;9.768;2023-08-21T12:48:41;100222.00;;;31.34;41.52
38780;BME280;29273;49.962;9.768;2023-08-21T12:51:07;100233.69;;;31.43;41.96
38780;BME280;29273;49.962;9.768;2023-08-21T12:53:32;100221.94;;;31.51;42.26
38780;BME280;29273;49.962;9.768;2023-08-21T12:55:58;100221.84;;;31.60;41.68